KLHB/LHB METAR and TAF weather

Enter ICAO airport designator
Station Type Date Time Source
KLHB METAR 2018/12/14 16:35 UTC NOAA

KLHB 141635Z AUTO 30015G22KT 10SM OVC015 06/04 A3003 RMK AO2 T00620041


Station Type Date Time Source
KLHB Decoded METAR 2018/12/14 16:35 UTC NOAA

Hearne, Hearne Municipal Airport, TX, United States (KLHB) 30-52-18N 096-37-20W
Dec 14, 2018 - 11:35 AM EST / 2018.12.14 1635 UTC
Wind: from the WNW (300 degrees) at 17 MPH (15 KT) gusting to 25 MPH (22 KT):0
Visibility: 10 mile(s):0
Sky conditions: overcast
Temperature: 43.2 F (6.2 C)
Dew Point: 39.4 F (4.1 C)
Relative Humidity: 86%
Pressure (altimeter): 30.03 in. Hg (1016 hPa)
ob: KLHB 141635Z AUTO 30015G22KT 10SM OVC015 06/04 A3003 RMK AO2 T00620041
cycle: 16

Station Type Date Time Source
KLHB TAF UTC NOAA

Error!


Example: see airport list